WEATHER DATA

YESTERDAY
Time Temp. Dewp. Hum. Wind dir Wind speed Wind gust Bar. 1h Prec. 24h Prec.
00:04 20.3 14.2 68 90 0.6 1.7 1017.9 0.0000 0.0000
00:14 20.2 14.1 68 90 0.6 2.5 1017.8 0.0000 0.0000
00:24 20.1 14 68 90 0.6 1.7 1017.7 0.0000 0.0000
00:35 20 13.9 68 90 0.6 1.7 1017.8 0.0000 0.0000
00:49 19.9 13.8 68 90 0.6 1.4 1017.6 0.0000 0.0000
00:59 19.8 13.7 68 90 0.6 1.4 1017.6 0.0000 0.0000
01:10 19.7 13.9 69 90 0.6 1.4 1017.5 0.0000 0.0000
01:20 19.6 13.8 69 90 0.6 1.1 1017.4 0.0000 0.0000
01:30 19.5 13.7 69 90 0.6 1.4 1017.4 0.0000 0.0000
01:40 19.3 13.5 69 90 0.6 1.1 1017.4 0.0000 0.0000
01:50 19.2 13.4 69 90 0.6 1.4 1017.4 0.0000 0.0000
02:00 19.1 13.3 69 90 0.3 1.1 1017.3 0.0000 0.0000
02:10 19 13.4 70 90 0.3 0.6 1017.2 0.0000 0.0000
02:30 18.8 13.2 70 90 0.3 0.6 1016.8 0.0000 0.0000
02:40 18.5 12.9 70 90 0.3 1.1 1016.8 0.0000 0.0000
02:50 18.4 12.8 70 90 0.3 1.1 1016.8 0.0000 0.0000
03:06 18.1 12.5 70 90 0.3 0.6 1016.9 0.0000 0.0000
03:15 17.9 12.4 70 90 0.3 1.1 1016.9 0.0000 0.0000
03:25 17.8 12.5 71 90 0.3 1.1 1016.8 0.0000 0.0000
03:36 17.6 12.3 71 90 0.3 0.6 1016.7 0.0000 0.0000
03:46 17.5 12.2 71 90 0.3 1.1 1016.6 0.0000 0.0000
03:55 17.5 12.2 71 90 0.3 0.6 1016.7 0.0000 0.0000
04:06 17.4 12.1 71 90 0.3 0.6 1016.4 0.0000 0.0000
04:16 17.3 12.2 72 90 0.3 1.1 1016.2 0.0000 0.0000
04:26 17.3 12.2 72 90 0.3 0.6 1016.3 0.0000 0.0000
04:36 17.5 12.4 72 90 0.6 1.1 1016.4 0.0000 0.0000
04:46 17.6 12.5 72 75 0.6 1.1 1016.5 0.0000 0.0000
04:56 17.8 12.7 72 90 0.3 0.6 1016.4 0.0000 0.0000
05:06 17.9 12.8 72 90 0.3 1.1 1016.4 0.0000 0.0000
05:17 18 13.1 73 90 0.3 0.6 1016.4 0.0000 0.0000
05:26 18.2 13.3 73 90 0.3 0.6 1016.3 0.0000 0.0000
05:36 18.2 13.1 72 90 0.3 0.6 1016.2 0.0000 0.0000
05:46 18.3 13.2 72 90 0.3 0.6 1016.4 0.0000 0.0000
05:57 18.5 13.4 72 90 0.6 1.1 1016.6 0.0000 0.0000
06:07 18.6 13.7 73 90 0.3 0.6 1016.6 0.0000 0.0000
06:16 18.7 13.8 73 90 0.3 0.6 1016.6 0.0000 0.0000
06:27 18.9 14 73 90 0.3 0.6 1016.7 0.0000 0.0000
06:37 19.1 14.2 73 90 0.3 0.6 1016.8 0.0000 0.0000
06:47 19.3 14.3 73 90 0.3 0.6 1016.9 0.0000 0.0000
06:57 19.5 14.5 73 90 0.3 0.6 1017 0.0000 0.0000
07:07 19.7 14.5 72 90 0.3 0.6 1017.1 0.0000 0.0000
07:17 20 14.8 72 90 0.3 0.6 1017.1 0.0000 0.0000
07:32 20.6 15.4 72 90 0.3 0.6 1017.1 0.0000 0.0000
07:43 21 15.8 72 90 0.3 1.1 1017.2 0.0000 0.0000
07:52 21.7 16.2 71 90 0.3 1.1 1017.1 0.0000 0.0000
08:02 22.3 16.6 70 70 0.6 1.4 1017.3 0.0000 0.0000
08:13 22.6 16.6 69 90 0.6 1.1 1017.4 0.0000 0.0000
08:23 23 17 69 9 0.6 2.5 1017.6 0.0000 0.0000
08:32 23.2 17 68 90 0.6 1.4 1017.5 0.0000 0.0000
08:42 23.7 17.2 67 90 0.6 1.7 1017.5 0.0000 0.0000
08:53 24.4 17.6 66 90 1.1 1.9 1017.4 0.0000 0.0000
09:03 24.9 17.9 65 90 1.1 2.5 1017.2 0.0000 0.0000
09:13 25.2 17.9 64 90 1.1 2.5 1017.2 0.0000 0.0000
09:23 25.6 18.3 64 74 0.6 1.4 1017.1 0.0000 0.0000
09:33 26 18.4 63 90 1.1 2.5 1017.1 0.0000 0.0000
09:43 26.4 18.5 62 90 0.3 1.4 1016.9 0.0000 0.0000
09:53 27.3 19.4 62 67 0.6 1.4 1016.8 0.0000 0.0000
10:03 27.9 19.7 61 72 0.6 1.7 1016.8 0.0000 0.0000
10:13 28.3 20.1 61 355 0.6 2.8 1016.6 0.0000 0.0000
10:23 28.6 20.3 61 69 0.6 1.9 1016.5 0.0000 0.0000
10:34 28.9 20.4 60 62 0.6 1.4 1016.3 0.0000 0.0000
10:44 29.1 20.3 59 90 0.3 1.4 1016.4 0.0000 0.0000
10:53 29.1 20.3 59 72 0.6 1.7 1016.3 0.0000 0.0000
11:03 29.4 20.6 59 90 0.6 1.7 1016.1 0.0000 0.0000
11:14 29.7 20.8 59 53 0.3 1.7 1016 0.0000 0.0000
11:24 30.2 21 58 73 0.6 1.9 1015.9 0.0000 0.0000
11:34 30.7 21.2 57 90 0.3 1.7 1015.7 0.0000 0.0000
11:44 31 21.5 57 38 0.3 1.7 1015.5 0.0000 0.0000
11:54 31.4 21.3 55 54 0.3 2.8 1015.3 0.0000 0.0000
12:04 31.9 21.4 54 60 0.6 1.7 1015 0.0000 0.0000
12:14 32 21.2 53 8 0.6 1.9 1015 0.0000 0.0000
12:24 32.3 21.2 52 90 0.3 1.4 1014.9 0.0000 0.0000
12:34 32.5 21.1 51 59 0.6 1.7 1014.7 0.0000 0.0000
12:44 32.4 20.6 50 90 0.3 1.4 1014.4 0.0000 0.0000
12:52 32.7 21.6 52 18 0.6 3.1 1014.4 0.0000 0.0000
13:01 32.9 21.4 51 61 0.6 1.4 1014.1 0.0000 0.0000
13:18 33.2 21 49 64 0.6 2.5 1013.8 0.0000 0.0000
13:22 33.3 21.1 49 45 0.3 1.7 1013.8 0.0000 0.0000
13:31 33.7 21.5 49 63 0.6 1.4 1013.6 0.0000 0.0000
13:42 33.8 21.3 48 302 0.6 2.8 1013.5 0.0000 0.0000
13:52 34 21.1 47 90 0.6 1.9 1013.3 0.0000 0.0000
14:02 34 20.7 46 45 0.3 1.9 1013.2 0.0000 0.0000
14:11 34.2 21.3 47 331 0.6 3.1 1013 0.0000 0.0000
14:22 34.2 20.6 45 90 0.3 1.4 1012.9 0.0000 0.0000
14:32 33.9 20.3 45 90 0.3 1.4 1012.6 0.0000 0.0000
14:42 34.1 20.8 46 318 1.1 2.8 1012.5 0.0000 0.0000
14:52 34.2 20.6 45 81 1.1 2.5 1012.4 0.0000 0.0000
15:02 34.3 20.7 45 21 0.6 1.7 1012.3 0.0000 0.0000
15:12 34.4 20.4 44 90 0.6 1.4 1012.1 0.0000 0.0000
15:22 34.3 20.3 44 45 0.3 2.5 1011.9 0.0000 0.0000
15:33 34.3 20.7 45 90 0.6 1.7 1011.6 0.0000 0.0000
15:43 34.4 20.4 44 57 0.3 1.7 1011.5 0.0000 0.0000
15:52 34.4 20.4 44 90 0.6 2.5 1011.3 0.0000 0.0000
16:03 34.4 20.4 44 90 0.3 1.4 1011.2 0.0000 0.0000
16:13 34.5 20.5 44 57 0.3 1.4 1011 0.0000 0.0000
16:23 34.5 20.5 44 90 0.3 1.1 1010.8 0.0000 0.0000
16:33 34.4 20 43 90 0.3 1.1 1010.7 0.0000 0.0000
16:43 34.4 20 43 90 0.3 1.4 1010.6 0.0000 0.0000
16:53 34.2 19.8 43 35 0.3 1.4 1010.5 0.0000 0.0000
17:03 33.9 19.6 43 15 0.3 2.8 1010.4 0.0000 0.0000
17:13 33.6 18.9 42 54 0.3 1.1 1010.3 0.0000 0.0000
17:23 33.4 18.7 42 90 0.3 1.1 1010.2 0.0000 0.0000
17:33 33.3 18.7 42 90 0.3 1.1 1010.2 0.0000 0.0000
17:43 33.3 18.7 42 90 0.6 1.1 1010.2 0.0000 0.0000
17:54 33.4 18.4 41 90 0.6 1.1 1010.4 0.0000 0.0000
18:04 32.4 19.6 47 100 1.4 3.3 1010.5 0.0000 0.0000
18:13 31.1 19.1 49 104 1.9 4.7 1010.6 0.0000 0.0000
18:25 30.1 19.2 52 90 1.7 5.8 1010.8 0.0000 0.0000
18:35 29.5 18.9 53 85 1.9 4.7 1010.9 0.0000 0.0000
18:45 28.9 18.7 54 102 1.9 5 1011.3 0.0000 0.0000
18:55 28.2 18.3 55 90 1.9 4.7 1011.5 0.0000 0.0000
19:05 27.8 18.2 56 90 1.9 6.7 1011.7 0.0000 0.0000
19:16 27.4 17.9 56 111 1.9 5 1012.1 0.0000 0.0000
19:25 27 17.5 56 104 1.7 4.4 1012.5 0.0000 0.0000
19:35 26.6 17.4 57 98 1.7 3.6 1013 0.0000 0.0000
19:46 26.2 16.7 56 105 1.7 5.6 1013.3 0.0000 0.0000
19:56 25.8 16.6 57 111 1.4 3.6 1013.6 0.0000 0.0000
20:06 25.5 16.4 57 101 1.7 3.6 1014 0.0000 0.0000
20:15 25.3 16.2 57 99 1.7 4.2 1014.3 0.0000 0.0000
20:26 25 16.2 58 99 1.4 3.1 1014.5 0.0000 0.0000
20:35 24.8 16 58 102 1.4 3.1 1014.7 0.0000 0.0000
20:45 24.6 16.1 59 104 1.4 2.8 1014.8 0.0000 0.0000
21:01 24.4 16.1 60 100 1.4 3.1 1015.2 0.0000 0.0000
21:11 24.3 16 60 103 1.4 2.8 1015.4 0.0000 0.0000
21:21 24.2 16 60 90 1.4 2.5 1015.5 0.0000 0.0000
21:31 24.1 16.1 61 90 1.1 1.9 1015.7 0.0000 0.0000
21:41 24 16 61 102 1.1 2.8 1016 0.0000 0.0000
21:51 23.9 15.9 61 90 1.4 3.6 1016.1 0.0000 0.0000
22:01 23.8 16.1 62 104 1.1 2.8 1016.3 0.0000 0.0000
22:04 23.7 16 62 104 1.1 2.8 1016.3 0.0000 0.0000
22:14 23.6 15.9 62 90 1.1 1.7 1016.5 0.0000 0.0000
22:24 23.5 15.8 62 90 1.1 1.7 1016.5 0.0000 0.0000
22:34 23.3 15.9 63 90 0.6 1.7 1016.6 0.0000 0.0000
22:44 23.3 15.9 63 102 1.1 2.5 1016.7 0.0000 0.0000
22:54 23.2 15.8 63 90 1.1 2.5 1016.7 0.0000 0.0000
23:05 23 15.6 63 90 0.6 1.9 1017 0.0000 0.0000
23:14 22.9 15.7 64 90 0.6 1.4 1017.1 0.0000 0.0000
23:24 22.7 15.5 64 90 0.6 1.4 1017.2 0.0000 0.0000
23:39 22.5 15.6 65 90 0.6 1.7 1017.1 0.0000 0.0000
23:48 22.4 15.7 66 90 0.6 1.7 1017.3 0.0000 0.0000
23:58 22.3 15.6 66 106 0.6 1.7 1017.3 0.0000

DAY STATISTIC

2019-12-14
TEMPERATURE
AVERAGE
25.7
HIGH
34.5
16:13
LOW
17.3
04:16
PRESSURE
AVERAGE
1015.1
HIGH
1017.9
00:04
LOW
1010.2
17:23
DEWPOINT
AVERAGE
17.0
HIGH
21.6
12:52
LOW
12.1
04:06
HUMIDITY
AVERAGE
60
HIGH
73
05:17
LOW
41
17:54
WIND SPEED
AVERAGE
0.7
HIGH
1.9
18:13
WIND GUST
AVERAGE
1.9
HIGH
6.7
19:05
WIND DIRECTION
PREVAILING
E
81.6%
N
4.3
NE
12.1
E
81.6
SE
0.0
S
0.0
SW
0.0
W
0.0
NW
2.1
PRECIPITATION
RAIN HOUR
0.0
RAIN DAY
0.0
TEMPERATURE (°C)
LOW
17.3
HIGH
34.5
AVERAGE
25.7
PRESSURE (hpa)
LOW
1010.2
HIGH
1017.9
AVERAGE
1015.1
DEVICE